Time;durP1;ratioP1;P1;durP2;ratioP2;P2;SDS_P1;SDS_P2;PMS_P1;PMS_P2;Temp;Humidity;BMP_temperature;BMP_pressure;BME280_temperature;BME280_humidity;BME280_pressure;Samples;Min_cycle;Max_cycle;Signal;HPM_P1;HPM_P2
2022/08/14 00:01:38;;;;;;;11.27;5.85;;;24.60;51.30;;;;;;9179903;19;20081;-71
2022/08/14 00:04:44;;;;;;;8.48;5.85;;;24.60;51.30;;;;;;9179013;19;20141;-72
2022/08/14 00:07:52;;;;;;;11.45;6.55;;;24.50;51.40;;;;;;9177583;19;20033;-71
2022/08/14 00:10:59;;;;;;;9.52;7.00;;;24.50;51.50;;;;;;9171544;19;20022;-72
2022/08/14 00:14:05;;;;;;;11.40;6.65;;;24.50;51.50;;;;;;9179835;19;20029;-73
2022/08/14 00:17:10;;;;;;;10.18;5.95;;;24.50;51.60;;;;;;9177026;19;20045;-71
2022/08/14 00:20:17;;;;;;;10.93;6.57;;;24.40;51.70;;;;;;9180053;19;20010;-71
2022/08/14 00:23:30;;;;;;;8.07;5.70;;;24.40;51.80;;;;;;9172886;19;20029;-72
2022/08/14 00:26:37;;;;;;;8.25;5.43;;;24.30;51.90;;;;;;9179905;19;20014;-73
2022/08/14 00:29:42;;;;;;;9.43;6.35;;;24.30;51.90;;;;;;9179439;19;20472;-71
2022/08/14 00:32:47;;;;;;;11.27;6.07;;;24.30;52.00;;;;;;9179853;19;20025;-70
2022/08/14 00:36:07;;;;;;;9.65;5.88;;;24.20;52.10;;;;;;9178937;19;20479;-71
2022/08/14 00:39:36;;;;;;;12.15;6.82;;;24.20;52.20;;;;;;9177688;19;20014;-71
2022/08/14 00:42:41;;;;;;;10.10;5.72;;;24.20;52.30;;;;;;9180187;19;20022;-70
2022/08/14 00:46:08;;;;;;;12.77;6.45;;;24.20;52.30;;;;;;9177874;19;20029;-69
2022/08/14 00:49:33;;;;;;;11.95;6.55;;;24.20;52.40;;;;;;9178548;19;20018;-71
2022/08/14 00:52:47;;;;;;;8.85;6.30;;;24.10;52.40;;;;;;9180453;19;20019;-71
2022/08/14 00:55:57;;;;;;;9.07;6.32;;;24.10;52.50;;;;;;9177498;19;20022;-70
2022/08/14 00:59:02;;;;;;;24.15;6.10;;;24.10;52.60;;;;;;9180377;19;20022;-70
2022/08/14 01:02:07;;;;;;;13.63;6.38;;;24.00;52.60;;;;;;9179908;19;20015;-70
2022/08/14 01:05:22;;;;;;;8.73;6.15;;;24.00;52.80;;;;;;9178084;19;20011;-72
2022/08/14 01:08:32;;;;;;;13.93;6.50;;;23.90;52.80;;;;;;9176858;19;20026;-71
2022/08/14 01:12:00;;;;;;;13.80;6.57;;;23.90;52.90;;;;;;9174911;19;20018;-71
2022/08/14 01:15:08;;;;;;;8.07;6.25;;;23.90;53.00;;;;;;9178885;19;20021;-72
2022/08/14 01:21:42;;;;;;;10.38;6.95;;;23.80;53.10;;;;;;9179196;19;20023;-70
2022/08/14 01:24:57;;;;;;;8.10;6.07;;;23.80;53.30;;;;;;9179812;19;20038;-71
2022/08/14 01:28:02;;;;;;;10.75;6.38;;;23.70;53.20;;;;;;9178878;19;20360;-73
2022/08/14 01:31:11;;;;;;;11.07;6.15;;;23.70;53.40;;;;;;9177170;19;20015;-71
2022/08/14 01:34:18;;;;;;;7.45;5.72;;;23.70;53.50;;;;;;9178796;19;20086;-72
2022/08/14 01:37:48;;;;;;;10.50;6.03;;;23.70;53.60;;;;;;9175315;19;20118;-71
2022/08/14 01:41:02;;;;;;;8.48;6.88;;;23.60;53.70;;;;;;9176532;19;20354;-72
2022/08/14 01:44:17;;;;;;;14.35;7.15;;;23.60;53.70;;;;;;9177916;19;20127;-73
2022/08/14 01:47:38;;;;;;;8.93;6.03;;;23.60;53.80;;;;;;9177079;19;20006;-71
2022/08/14 01:50:44;;;;;;;8.63;6.10;;;23.50;53.80;;;;;;9178758;19;20030;-72
2022/08/14 01:53:54;;;;;;;13.07;7.03;;;23.50;53.90;;;;;;9178364;19;20015;-71
2022/08/14 01:57:00;;;;;;;8.23;6.40;;;23.40;54.10;;;;;;9176464;19;20044;-71
2022/08/14 02:00:14;;;;;;;9.45;6.18;;;23.40;54.10;;;;;;9182782;19;20017;-72
2022/08/14 02:03:22;;;;;;;12.70;6.65;;;23.40;54.20;;;;;;9185005;19;20026;-72
2022/08/14 02:06:28;;;;;;;9.20;6.75;;;23.30;54.20;;;;;;9187246;19;20010;-71
2022/08/14 02:09:40;;;;;;;12.57;6.95;;;23.30;54.30;;;;;;9183144;19;20479;-70
2022/08/14 02:12:47;;;;;;;14.40;6.78;;;23.30;54.40;;;;;;9186863;19;20018;-74
2022/08/14 02:16:02;;;;;;;8.32;6.05;;;23.30;54.50;;;;;;9183947;19;20007;-72
2022/08/14 02:19:28;;;;;;;9.25;6.80;;;23.20;54.50;;;;;;9186358;19;20014;-71
2022/08/14 02:22:37;;;;;;;11.25;7.40;;;23.20;54.60;;;;;;9187213;19;20081;-71
2022/08/14 02:25:54;;;;;;;12.55;7.88;;;23.20;54.80;;;;;;9187800;19;20013;-71
2022/08/14 02:29:04;;;;;;;14.68;7.28;;;23.10;54.80;;;;;;9184416;19;20546;-71
2022/08/14 02:32:10;;;;;;;11.70;7.43;;;23.10;54.90;;;;;;9186181;19;20010;-70
2022/08/14 02:35:34;;;;;;;10.82;6.93;;;23.00;54.90;;;;;;9184821;19;20030;-71
2022/08/14 02:38:45;;;;;;;14.38;7.30;;;23.00;55.00;;;;;;9184323;19;20101;-73
2022/08/14 02:41:53;;;;;;;10.35;7.60;;;23.00;55.10;;;;;;9185556;19;20436;-73
2022/08/14 02:45:02;;;;;;;9.35;7.00;;;22.90;55.20;;;;;;9186435;19;20363;-71
2022/08/14 02:48:08;;;;;;;16.98;7.47;;;22.90;55.20;;;;;;9184150;19;20030;-73
2022/08/14 02:51:34;;;;;;;8.73;6.75;;;22.90;55.30;;;;;;9185714;19;20018;-72
2022/08/14 02:54:40;;;;;;;12.88;7.47;;;22.80;55.30;;;;;;9185514;19;20345;-71
2022/08/14 02:57:50;;;;;;;14.30;7.88;;;22.80;55.40;;;;;;9182256;19;20015;-71
2022/08/14 03:01:07;;;;;;;9.90;7.07;;;22.80;55.60;;;;;;9185003;19;20022;-72
2022/08/14 03:04:13;;;;;;;10.00;7.10;;;22.80;55.60;;;;;;9184580;19;20018;-72
2022/08/14 03:07:21;;;;;;;11.88;6.50;;;22.70;55.70;;;;;;9184951;19;20037;-71
2022/08/14 03:10:27;;;;;;;13.45;8.15;;;22.70;55.80;;;;;;9179099;19;20030;-73
2022/08/14 03:13:43;;;;;;;12.80;7.45;;;22.70;55.90;;;;;;9182905;19;20026;-72
2022/08/14 03:16:49;;;;;;;16.17;7.60;;;22.60;56.00;;;;;;9181114;19;20094;-71
2022/08/14 03:19:54;;;;;;;9.30;7.10;;;22.60;56.00;;;;;;9183286;19;20022;-72
2022/08/14 03:23:02;;;;;;;18.58;7.45;;;22.60;56.10;;;;;;9182678;19;20015;-71
2022/08/14 03:26:10;;;;;;;10.05;7.20;;;22.60;56.20;;;;;;9182687;19;20025;-74
2022/08/14 03:29:24;;;;;;;15.95;8.43;;;22.60;56.30;;;;;;9182250;19;20129;-70
2022/08/14 03:32:32;;;;;;;12.20;6.85;;;22.50;56.30;;;;;;9183453;19;20027;-72
2022/08/14 03:35:38;;;;;;;10.10;6.85;;;22.50;56.30;;;;;;9181700;19;20564;-70
2022/08/14 03:39:05;;;;;;;8.15;6.50;;;22.50;56.40;;;;;;9181141;19;20455;-72
2022/08/14 03:42:25;;;;;;;10.95;6.85;;;22.50;56.40;;;;;;9183814;19;20107;-71
2022/08/14 03:45:43;;;;;;;13.00;6.95;;;22.50;56.50;;;;;;9183314;19;20018;-72
2022/08/14 03:48:53;;;;;;;10.20;7.68;;;22.40;56.70;;;;;;9183032;19;20361;-72
2022/08/14 03:52:03;;;;;;;12.10;7.47;;;22.40;56.70;;;;;;9182143;19;20018;-71
2022/08/14 03:55:21;;;;;;;15.38;8.15;;;22.40;56.70;;;;;;9181883;19;20035;-72
2022/08/14 03:58:28;;;;;;;10.40;7.35;;;22.30;56.70;;;;;;9180913;19;20507;-71
2022/08/14 04:01:46;;;;;;;13.90;7.97;;;22.30;56.90;;;;;;9182357;19;20018;-73
2022/08/14 04:05:05;;;;;;;10.85;7.82;;;22.30;56.90;;;;;;9180471;19;20049;-71
2022/08/14 04:08:17;;;;;;;14.68;7.38;;;22.30;56.90;;;;;;9182081;19;20022;-71
2022/08/14 04:11:34;;;;;;;11.88;7.97;;;22.30;57.00;;;;;;9175900;19;20006;-73
2022/08/14 04:14:42;;;;;;;12.07;8.15;;;22.20;57.10;;;;;;9180247;19;20018;-71
2022/08/14 04:17:52;;;;;;;9.55;7.35;;;22.20;57.10;;;;;;9179982;19;20014;-72
2022/08/14 04:21:00;;;;;;;11.57;8.85;;;22.10;57.20;;;;;;9180354;19;20091;-72
2022/08/14 04:24:05;;;;;;;10.73;8.07;;;22.10;57.20;;;;;;9181760;19;20006;-72
2022/08/14 04:27:12;;;;;;;11.57;8.50;;;22.10;57.40;;;;;;9181152;19;20014;-71
2022/08/14 04:30:21;;;;;;;15.23;7.88;;;22.10;57.50;;;;;;9181571;19;20025;-71
2022/08/14 04:33:39;;;;;;;11.55;8.20;;;22.00;57.50;;;;;;9181576;19;20110;-71
2022/08/14 04:48:11;;;;;;;12.40;7.85;;;21.90;57.80;;;;;;9179433;19;20014;-70
2022/08/14 04:50:09;;;;;;;15.98;8.73;;;21.90;57.80;;;;;;9180686;19;20348;-71
2022/08/14 04:53:16;;;;;;;10.85;8.32;;;21.90;58.00;;;;;;9178213;19;20025;-71
2022/08/14 04:56:27;;;;;;;13.80;8.63;;;21.90;58.10;;;;;;9178359;19;20014;-71
2022/08/14 04:59:38;;;;;;;12.57;7.85;;;21.90;58.10;;;;;;9179532;19;20367;-72
2022/08/14 05:02:46;;;;;;;9.70;7.60;;;21.80;58.20;;;;;;9177696;19;20011;-72
2022/08/14 05:05:58;;;;;;;11.25;8.13;;;21.80;58.30;;;;;;9180274;19;20018;-71
2022/08/14 05:09:04;;;;;;;14.25;8.98;;;21.80;58.50;;;;;;9179617;19;20056;-71
2022/08/14 05:12:10;;;;;;;12.48;8.05;;;21.80;58.40;;;;;;9178856;19;20025;-71
2022/08/14 05:15:37;;;;;;;11.75;7.80;;;21.70;58.50;;;;;;9179915;19;20023;-71
2022/08/14 05:18:45;;;;;;;9.82;7.53;;;21.70;58.60;;;;;;9176475;19;20463;-73
2022/08/14 05:22:13;;;;;;;12.48;8.15;;;21.70;58.70;;;;;;9179774;19;20014;-71
2022/08/14 05:25:22;;;;;;;14.65;8.13;;;21.70;58.80;;;;;;9177786;19;20099;-71
2022/08/14 05:28:29;;;;;;;10.10;7.95;;;21.70;58.80;;;;;;9179739;19;20010;-71
2022/08/14 05:31:39;;;;;;;10.40;7.97;;;21.70;59.00;;;;;;9179582;19;20019;-71
2022/08/14 05:34:44;;;;;;;16.30;8.45;;;21.70;59.10;;;;;;9186403;19;20094;-70
2022/08/14 05:37:52;;;;;;;15.15;7.95;;;21.70;59.20;;;;;;9186637;19;20030;-71
2022/08/14 05:40:58;;;;;;;11.73;8.75;;;21.70;59.30;;;;;;9183669;19;20018;-71
2022/08/14 05:44:03;;;;;;;12.90;8.18;;;21.70;59.40;;;;;;9186621;19;20019;-73
2022/08/14 05:47:10;;;;;;;11.60;8.48;;;21.70;59.50;;;;;;9187039;19;20197;-72
2022/08/14 05:50:16;;;;;;;13.73;8.80;;;21.70;59.50;;;;;;9188035;19;20019;-73
2022/08/14 05:53:27;;;;;;;14.38;8.80;;;21.70;59.60;;;;;;9187764;19;20033;-71
2022/08/14 05:56:37;;;;;;;12.05;8.75;;;21.80;59.80;;;;;;9187933;19;20014;-71
2022/08/14 05:59:43;;;;;;;15.32;8.50;;;21.80;59.70;;;;;;9182935;19;20656;-72
2022/08/14 06:02:48;;;;;;;11.38;8.40;;;21.90;59.80;;;;;;9186960;19;20034;-71
2022/08/14 06:05:55;;;;;;;14.23;7.68;;;22.00;59.90;;;;;;9187078;19;20074;-73
2022/08/14 06:09:03;;;;;;;12.38;8.30;;;22.10;60.00;;;;;;9187705;19;20020;-71
2022/08/14 06:12:09;;;;;;;14.32;8.00;;;22.20;60.00;;;;;;9185914;19;20023;-71
2022/08/14 06:15:15;;;;;;;11.55;7.88;;;22.30;60.00;;;;;;9187213;19;20018;-72
2022/08/14 06:18:24;;;;;;;11.38;8.32;;;22.40;59.90;;;;;;9183282;19;20491;-72
2022/08/14 06:21:35;;;;;;;12.65;7.40;;;22.50;59.90;;;;;;9185690;19;20019;-73
2022/08/14 06:24:43;;;;;;;10.05;7.97;;;22.60;59.90;;;;;;9185758;19;20739;-71
2022/08/14 06:27:50;;;;;;;12.60;8.05;;;22.80;60.00;;;;;;9185641;19;20018;-71
2022/08/14 06:30:55;;;;;;;10.35;7.57;;;22.90;59.90;;;;;;9186293;19;20034;-71
2022/08/14 06:34:01;;;;;;;9.95;7.20;;;23.10;59.90;;;;;;9185929;19;20006;-71
2022/08/14 06:37:26;;;;;;;11.00;7.63;;;23.20;59.80;;;;;;9186149;19;20010;-71
2022/08/14 06:40:36;;;;;;;11.18;7.47;;;23.40;59.70;;;;;;9183328;19;20025;-71
2022/08/14 06:43:46;;;;;;;8.00;7.05;;;23.50;59.60;;;;;;9184022;19;20353;-71
2022/08/14 06:46:52;;;;;;;9.13;7.03;;;23.70;59.50;;;;;;9185400;19;20143;-74
2022/08/14 06:49:58;;;;;;;15.15;7.00;;;23.90;59.40;;;;;;9183504;19;20010;-71
2022/08/14 06:53:03;;;;;;;12.13;7.28;;;24.00;59.40;;;;;;9185489;19;20015;-71
2022/08/14 06:56:11;;;;;;;14.07;6.88;;;24.20;59.20;;;;;;9185873;19;20489;-72
2022/08/14 06:59:18;;;;;;;11.45;7.18;;;24.30;59.20;;;;;;9182462;19;20013;-72
2022/08/14 07:05:47;;;;;;;14.30;7.05;;;24.60;59.00;;;;;;9184580;19;20023;-68
2022/08/14 07:09:03;;;;;;;10.90;7.53;;;24.80;58.90;;;;;;9183706;19;20018;-71
2022/08/14 07:12:12;;;;;;;13.23;7.05;;;25.00;58.80;;;;;;9180407;19;20539;-72
2022/08/14 07:15:37;;;;;;;16.40;6.47;;;25.10;58.70;;;;;;9182370;19;20006;-68
2022/08/14 07:18:46;;;;;;;8.05;6.28;;;25.30;58.50;;;;;;9182669;19;20086;-69
2022/08/14 07:21:55;;;;;;;10.32;5.93;;;25.50;58.40;;;;;;9184336;19;20015;-68
2022/08/14 07:25:00;;;;;;;8.80;5.95;;;25.70;58.40;;;;;;9182316;19;20041;-70
2022/08/14 07:28:15;;;;;;;9.27;6.53;;;25.90;58.40;;;;;;9181262;19;20026;-71
2022/08/14 07:31:27;;;;;;;9.32;6.10;;;26.00;58.10;;;;;;9178883;19;20021;-71
2022/08/14 07:34:32;;;;;;;10.13;6.25;;;26.20;58.00;;;;;;9181331;19;20132;-68
2022/08/14 07:37:45;;;;;;;11.48;6.20;;;26.30;57.90;;;;;;9183040;19;20021;-67
2022/08/14 07:40:53;;;;;;;14.23;5.75;;;26.50;57.80;;;;;;9178125;19;20025;-69
2022/08/14 07:44:01;;;;;;;13.60;5.82;;;26.70;57.70;;;;;;9183424;19;20017;-65
2022/08/14 07:47:26;;;;;;;8.68;5.40;;;26.80;57.50;;;;;;9182719;19;20033;-68
2022/08/14 07:50:32;;;;;;;11.70;5.47;;;27.00;57.30;;;;;;9180976;19;20025;-69
2022/08/14 07:53:41;;;;;;;7.35;5.00;;;27.10;57.20;;;;;;9182626;19;20021;-67
2022/08/14 07:56:46;;;;;;;8.23;5.22;;;27.20;57.00;;;;;;9183069;19;20014;-71
2022/08/14 07:59:58;;;;;;;6.13;5.00;;;27.30;56.90;;;;;;9180771;19;20011;-69
2022/08/14 08:03:04;;;;;;;8.65;4.97;;;27.40;56.70;;;;;;9181732;19;20026;-69
2022/08/14 08:06:10;;;;;;;7.53;5.00;;;27.50;56.70;;;;;;9175767;19;20527;-69
2022/08/14 08:09:25;;;;;;;10.00;4.95;;;27.70;56.60;;;;;;9171620;19;20667;-70
2022/08/14 08:12:36;;;;;;;8.05;4.93;;;27.80;56.40;;;;;;9172911;19;20053;-70
2022/08/14 08:15:48;;;;;;;8.10;4.85;;;28.00;56.30;;;;;;9172183;19;20014;-69
2022/08/14 08:18:53;;;;;;;9.90;5.53;;;28.10;56.10;;;;;;9172539;19;20376;-69
2022/08/14 08:22:08;;;;;;;10.30;5.22;;;28.30;56.00;;;;;;9174946;19;20011;-69
2022/08/14 08:25:14;;;;;;;8.65;5.07;;;28.40;55.90;;;;;;9173938;19;20022;-69
2022/08/14 08:28:24;;;;;;;6.13;5.00;;;28.60;55.70;;;;;;9173241;19;20014;-70
2022/08/14 08:31:35;;;;;;;6.60;5.07;;;28.70;55.50;;;;;;9174063;19;20019;-70
2022/08/14 08:34:47;;;;;;;9.65;4.65;;;28.90;55.30;;;;;;9175789;19;20052;-70
2022/08/14 08:37:55;;;;;;;6.93;5.40;;;29.00;55.10;;;;;;9171340;19;20035;-74
2022/08/14 08:41:18;;;;;;;9.05;5.00;;;29.20;55.00;;;;;;9174281;19;20355;-75
2022/08/14 08:44:31;;;;;;;10.50;5.20;;;29.40;54.80;;;;;;9173400;19;20026;-78
2022/08/14 08:47:44;;;;;;;6.50;4.80;;;29.50;54.70;;;;;;9173011;19;20093;-70
2022/08/14 08:50:51;;;;;;;6.95;4.65;;;29.70;54.50;;;;;;9173423;19;20015;-71
2022/08/14 08:53:59;;;;;;;8.10;4.68;;;29.80;54.40;;;;;;9171553;19;20022;-71
2022/08/14 08:57:13;;;;;;;7.13;4.93;;;30.00;54.30;;;;;;9172591;19;20010;-71
2022/08/14 09:00:22;;;;;;;9.13;4.60;;;30.20;53.90;;;;;;9170816;19;20021;-73
2022/08/14 09:03:33;;;;;;;6.68;4.97;;;30.30;53.80;;;;;;9168301;19;20018;-71
2022/08/14 09:06:49;;;;;;;9.50;4.20;;;30.50;53.50;;;;;;9161876;19;20014;-72
2022/08/14 09:10:14;;;;;;;6.88;4.85;;;30.60;53.30;;;;;;9162828;19;20010;-72
2022/08/14 09:13:28;;;;;;;6.95;4.07;;;30.80;53.20;;;;;;9167522;19;20018;-72
2022/08/14 09:16:34;;;;;;;6.43;4.50;;;31.00;52.90;;;;;;9166764;19;20776;-71
2022/08/14 09:19:43;;;;;;;7.32;3.90;;;31.10;52.70;;;;;;9165224;19;20014;-72
2022/08/14 09:22:49;;;;;;;6.25;4.32;;;31.30;52.50;;;;;;9164743;19;20197;-72
2022/08/14 09:25:57;;;;;;;4.60;4.18;;;31.40;52.30;;;;;;9164110;19;20011;-73
2022/08/14 09:29:05;;;;;;;5.85;4.13;;;31.50;52.10;;;;;;9166621;19;20014;-72
2022/08/14 09:32:20;;;;;;;5.25;3.83;;;31.70;51.90;;;;;;9164351;19;20019;-73
2022/08/14 09:36:02;;;;;;;6.68;3.67;;;31.80;51.70;;;;;;9167091;19;20954;-75
2022/08/14 09:39:20;;;;;;;5.60;3.72;;;32.00;51.40;;;;;;9165897;19;20039;-73
2022/08/14 09:42:45;;;;;;;4.00;3.58;;;32.20;51.30;;;;;;9167058;19;20086;-72
2022/08/14 09:45:57;;;;;;;9.30;4.00;;;32.30;50.80;;;;;;9159261;19;20018;-73
2022/08/14 09:49:08;;;;;;;6.75;3.90;;;32.40;50.80;;;;;;9168341;19;20015;-72
2022/08/14 09:52:24;;;;;;;10.05;3.97;;;32.60;50.60;;;;;;9170231;19;20015;-72
2022/08/14 09:55:39;;;;;;;4.07;3.42;;;32.70;50.30;;;;;;9163703;19;20026;-74
2022/08/14 09:58:47;;;;;;;4.75;3.58;;;32.80;50.20;;;;;;9168553;19;20030;-71
2022/08/14 10:01:55;;;;;;;6.25;4.28;;;32.90;50.00;;;;;;9163522;19;20030;-70
2022/08/14 10:05:05;;;;;;;4.00;3.40;;;33.00;49.80;;;;;;9160329;19;20018;-69
2022/08/14 10:08:23;;;;;;;5.75;3.75;;;33.10;49.50;;;;;;9163909;19;20018;-69
2022/08/14 10:11:35;;;;;;;7.18;3.22;;;33.20;49.10;;;;;;9164735;19;20018;-73
2022/08/14 10:14:40;;;;;;;3.75;2.97;;;33.30;49.10;;;;;;9171474;19;20014;-74
2022/08/14 10:17:45;;;;;;;5.13;3.78;;;33.40;48.90;;;;;;9177621;19;20014;-75
2022/08/14 10:20:59;;;;;;;6.47;3.35;;;33.50;48.60;;;;;;9180666;19;20057;-72
2022/08/14 10:24:08;;;;;;;3.47;3.05;;;33.60;48.40;;;;;;9185461;19;20470;-74
2022/08/14 10:27:23;;;;;;;5.47;2.85;;;33.70;48.30;;;;;;9184325;19;20352;-73
2022/08/14 10:30:36;;;;;;;4.22;3.35;;;33.70;48.20;;;;;;9178719;19;20023;-73
2022/08/14 10:33:42;;;;;;;7.30;3.70;;;33.80;47.80;;;;;;9177656;19;20017;-74
2022/08/14 10:37:06;;;;;;;4.40;3.15;;;33.90;47.80;;;;;;9177236;19;20471;-74
2022/08/14 10:40:29;;;;;;;3.70;3.40;;;33.90;47.50;;;;;;9173679;19;20510;-74
2022/08/14 10:44:07;;;;;;;5.65;3.40;;;34.00;47.30;;;;;;9177538;19;20038;-75
2022/08/14 10:47:36;;;;;;;4.35;3.22;;;34.10;47.10;;;;;;9183094;19;20017;-72
2022/08/14 10:51:01;;;;;;;4.97;3.72;;;34.20;47.00;;;;;;9185806;19;20114;-73
2022/08/14 10:54:10;;;;;;;4.22;3.42;;;34.30;47.20;;;;;;9183903;19;20024;-75
2022/08/14 10:57:49;;;;;;;4.60;3.75;;;34.40;47.00;;;;;;9185972;19;20033;-75
2022/08/14 11:01:00;;;;;;;6.82;3.92;;;34.40;46.60;;;;;;9183287;19;20030;-72
2022/08/14 11:04:07;;;;;;;3.72;3.33;;;34.40;46.60;;;;;;9185835;19;20025;-74
2022/08/14 11:07:16;;;;;;;7.15;3.75;;;34.40;46.60;;;;;;9185541;19;20026;-73
2022/08/14 11:10:27;;;;;;;4.85;3.50;;;34.50;46.40;;;;;;9180802;19;20015;-74
2022/08/14 11:13:37;;;;;;;4.90;3.63;;;34.50;46.40;;;;;;9184763;19;20397;-75
2022/08/14 11:16:42;;;;;;;3.65;2.95;;;34.60;46.30;;;;;;9185383;19;20022;-74
2022/08/14 11:20:00;;;;;;;3.90;3.20;;;34.60;46.20;;;;;;9184340;19;20035;-75
2022/08/14 11:23:09;;;;;;;3.65;3.25;;;34.70;46.10;;;;;;9183598;19;20014;-74
2022/08/14 11:26:17;;;;;;;7.50;3.35;;;34.70;45.90;;;;;;9182444;19;20018;-76
2022/08/14 11:29:26;;;;;;;3.92;3.17;;;34.70;45.70;;;;;;9182429;19;20010;-73
2022/08/14 11:32:41;;;;;;;3.78;3.08;;;34.70;45.40;;;;;;9181498;19;20010;-72
2022/08/14 11:35:50;;;;;;;5.10;3.33;;;34.80;45.40;;;;;;9185199;19;20777;-75
2022/08/14 11:38:57;;;;;;;10.25;3.25;;;34.70;45.30;;;;;;9184094;19;20090;-75
2022/08/14 11:42:02;;;;;;;5.13;3.05;;;34.80;45.30;;;;;;9179762;19;20014;-74
2022/08/14 11:45:33;;;;;;;6.75;3.13;;;34.80;45.20;;;;;;9181991;19;20430;-75
2022/08/14 11:48:49;;;;;;;3.80;3.08;;;34.90;45.10;;;;;;9184032;19;20014;-75
2022/08/14 11:52:08;;;;;;;4.13;3.05;;;34.90;44.90;;;;;;9182141;19;20034;-75
2022/08/14 11:55:15;;;;;;;4.32;3.13;;;35.00;45.00;;;;;;9184011;19;20014;-76
2022/08/14 11:58:28;;;;;;;4.32;2.78;;;35.00;44.90;;;;;;9183228;19;20014;-76
2022/08/14 12:01:37;;;;;;;3.72;3.10;;;35.00;44.60;;;;;;9178937;19;20026;-75
2022/08/14 12:04:52;;;;;;;7.45;3.38;;;35.00;44.50;;;;;;9180610;19;20314;-75
2022/08/14 12:07:59;;;;;;;7.88;3.40;;;35.10;44.50;;;;;;9182431;19;20014;-74
2022/08/14 12:11:16;;;;;;;6.30;3.45;;;35.10;44.60;;;;;;9178791;19;20021;-74
2022/08/14 12:14:22;;;;;;;3.40;3.00;;;35.10;44.60;;;;;;9180263;19;20065;-75
2022/08/14 12:17:52;;;;;;;4.18;2.88;;;35.20;44.60;;;;;;9182372;19;20021;-75
2022/08/14 12:21:00;;;;;;;4.57;3.53;;;35.20;44.40;;;;;;9178659;19;20060;-78
2022/08/14 12:24:08;;;;;;;6.93;3.22;;;35.30;44.50;;;;;;9181860;19;20026;-75
2022/08/14 12:27:40;;;;;;;4.47;3.20;;;35.30;44.30;;;;;;9180362;19;20019;-76
2022/08/14 12:30:58;;;;;;;3.72;3.25;;;35.30;44.20;;;;;;9181801;19;20340;-76
2022/08/14 12:34:10;;;;;;;2.95;2.63;;;35.40;44.20;;;;;;9182712;19;20021;-76
2022/08/14 12:37:15;;;;;;;3.95;2.83;;;35.50;44.00;;;;;;9181317;19;20011;-75
2022/08/14 12:40:23;;;;;;;3.38;2.95;;;35.50;43.90;;;;;;9180413;19;20014;-75
2022/08/14 12:43:28;;;;;;;3.83;3.03;;;35.50;43.70;;;;;;9179781;19;20018;-75
2022/08/14 12:46:36;;;;;;;5.82;3.00;;;35.50;43.60;;;;;;9181123;19;20030;-75
2022/08/14 12:49:54;;;;;;;4.35;3.17;;;35.50;43.60;;;;;;9181708;19;20030;-75
2022/08/14 12:53:04;;;;;;;4.18;3.10;;;35.60;43.50;;;;;;9181271;19;21103;-76
2022/08/14 12:56:20;;;;;;;4.57;3.40;;;35.50;43.50;;;;;;9180647;19;20010;-77
2022/08/14 12:59:38;;;;;;;5.45;3.60;;;35.60;43.50;;;;;;9179041;19;20018;-77
2022/08/14 13:02:52;;;;;;;4.28;2.50;;;35.50;43.30;;;;;;9177847;19;20017;-76
2022/08/14 13:06:02;;;;;;;3.20;2.70;;;35.50;43.20;;;;;;9180607;19;20015;-76
2022/08/14 13:09:09;;;;;;;3.55;2.97;;;35.50;43.20;;;;;;9180240;19;20002;-76
2022/08/14 13:12:26;;;;;;;3.20;2.90;;;35.50;43.20;;;;;;9178526;19;20558;-77
2022/08/14 13:15:42;;;;;;;4.22;3.45;;;35.50;43.80;;;;;;9181066;19;20478;-76
2022/08/14 13:18:48;;;;;;;5.25;2.58;;;35.50;43.10;;;;;;9176794;19;20045;-76
2022/08/14 13:22:06;;;;;;;6.75;2.97;;;35.50;43.00;;;;;;9176421;19;20950;-78
2022/08/14 13:25:29;;;;;;;3.22;2.60;;;35.50;42.90;;;;;;9179479;19;20014;-75
2022/08/14 13:28:41;;;;;;;6.43;3.72;;;35.50;43.00;;;;;;9179416;19;20022;-77
2022/08/14 13:32:08;;;;;;;3.08;2.70;;;35.50;43.00;;;;;;9179724;19;20364;-77
2022/08/14 13:35:14;;;;;;;4.65;2.80;;;35.50;42.90;;;;;;9180244;19;20058;-76
2022/08/14 13:38:24;;;;;;;3.25;2.78;;;35.50;42.90;;;;;;9177987;19;20014;-76
2022/08/14 13:41:32;;;;;;;4.20;2.63;;;35.50;42.80;;;;;;9177999;19;20011;-76
2022/08/14 13:44:42;;;;;;;3.55;2.53;;;35.50;42.70;;;;;;9177603;19;20018;-74
2022/08/14 13:47:51;;;;;;;5.30;2.80;;;35.40;42.50;;;;;;9177558;19;20103;-77
2022/08/14 13:51:02;;;;;;;4.35;2.70;;;35.40;42.40;;;;;;9179599;19;20015;-74
2022/08/14 13:54:15;;;;;;;3.05;2.63;;;35.30;42.30;;;;;;9181242;19;20021;-75
2022/08/14 13:57:20;;;;;;;2.80;2.35;;;35.30;42.50;;;;;;9188054;19;20020;-77
2022/08/14 14:00:35;;;;;;;4.20;2.75;;;35.30;42.60;;;;;;9188116;19;20022;-75
2022/08/14 14:03:58;;;;;;;2.60;2.40;;;35.20;42.50;;;;;;9188636;19;20359;-76
2022/08/14 14:07:06;;;;;;;4.03;2.63;;;35.20;42.40;;;;;;9188559;19;20014;-75
2022/08/14 14:10:18;;;;;;;7.22;2.90;;;35.20;42.40;;;;;;9183722;19;20052;-75
2022/08/14 14:13:33;;;;;;;5.65;2.75;;;35.20;42.30;;;;;;9184876;19;20344;-78
2022/08/14 14:16:41;;;;;;;7.55;2.55;;;35.20;42.40;;;;;;9186880;19;20018;-74
2022/08/14 14:19:48;;;;;;;14.27;2.70;;;35.20;42.40;;;;;;9187301;19;20479;-75
2022/08/14 14:22:55;;;;;;;4.47;2.65;;;35.20;42.30;;;;;;9182750;19;20014;-76
2022/08/14 14:26:13;;;;;;;3.10;2.30;;;35.20;42.20;;;;;;9186651;19;20017;-77
2022/08/14 14:29:27;;;;;;;7.57;3.05;;;35.20;42.20;;;;;;9186867;19;20018;-77
2022/08/14 14:32:40;;;;;;;3.30;2.60;;;35.10;42.20;;;;;;9187755;19;20023;-75
2022/08/14 14:36:09;;;;;;;2.75;2.53;;;35.00;42.10;;;;;;9187259;19;20018;-75
2022/08/14 14:39:22;;;;;;;2.67;2.45;;;34.90;42.10;;;;;;9184285;19;20041;-76
2022/08/14 14:42:32;;;;;;;2.85;2.28;;;34.80;42.20;;;;;;9184880;19;20460;-76
2022/08/14 14:45:41;;;;;;;2.58;2.10;;;34.60;42.10;;;;;;9185072;19;20127;-75
2022/08/14 14:48:46;;;;;;;4.82;2.38;;;34.50;42.10;;;;;;9186411;19;20099;-78
2022/08/14 14:51:59;;;;;;;3.42;2.65;;;34.40;42.10;;;;;;9184875;19;20030;-77
2022/08/14 14:55:07;;;;;;;3.40;2.30;;;34.30;42.20;;;;;;9186800;19;20474;-77
2022/08/14 14:58:17;;;;;;;6.40;2.53;;;34.20;42.30;;;;;;9184874;19;20042;-77
2022/08/14 15:01:25;;;;;;;3.10;2.42;;;34.10;42.40;;;;;;9184543;19;20036;-76
2022/08/14 15:04:31;;;;;;;3.40;2.60;;;34.10;42.50;;;;;;9184149;19;20052;-77
2022/08/14 15:07:44;;;;;;;4.90;3.30;;;34.10;42.50;;;;;;9183632;19;20018;-76
2022/08/14 15:10:49;;;;;;;4.20;2.17;;;34.10;42.40;;;;;;9177896;19;20464;-76
2022/08/14 15:13:59;;;;;;;4.38;2.50;;;34.00;42.20;;;;;;9185064;19;20023;-75
2022/08/14 15:17:06;;;;;;;3.25;2.55;;;34.00;42.20;;;;;;9184834;19;20015;-74
2022/08/14 15:20:17;;;;;;;2.55;2.25;;;34.10;42.30;;;;;;9183098;19;20026;-77
2022/08/14 15:23:36;;;;;;;4.90;2.50;;;34.10;42.30;;;;;;9180214;19;20052;-76
2022/08/14 15:26:48;;;;;;;;;;;34.10;42.30;;;;;;9184053;19;20105;-77
2022/08/14 15:29:56;;;;;;;4.60;2.78;;;34.00;42.40;;;;;;9184350;19;19915;-78
2022/08/14 15:33:02;;;;;;;3.58;2.70;;;34.00;42.30;;;;;;9183944;19;20025;-75
2022/08/14 15:36:09;;;;;;;3.72;2.78;;;34.00;42.30;;;;;;9182481;19;20728;-74
2022/08/14 15:39:34;;;;;;;5.10;2.42;;;34.00;42.30;;;;;;9182964;19;20018;-78
2022/08/14 15:42:45;;;;;;;3.40;2.67;;;33.90;42.30;;;;;;9176837;19;20027;-70
2022/08/14 15:45:53;;;;;;;4.90;2.72;;;34.00;43.00;;;;;;9177358;19;20018;-73
2022/08/14 15:49:01;;;;;;;3.45;2.90;;;33.90;42.30;;;;;;9172262;19;20018;-70
2022/08/14 15:52:07;;;;;;;2.78;2.47;;;33.90;42.30;;;;;;9166726;19;20039;-73
2022/08/14 15:55:17;;;;;;;3.42;2.40;;;33.80;42.30;;;;;;9167984;19;20019;-73
2022/08/14 15:58:22;;;;;;;3.42;2.67;;;33.80;42.30;;;;;;9164410;19;20021;-76
2022/08/14 16:01:30;;;;;;;3.45;2.70;;;33.80;42.30;;;;;;9165609;19;20728;-74
2022/08/14 16:04:55;;;;;;;2.90;2.70;;;33.70;42.20;;;;;;9169509;19;20018;-74
2022/08/14 16:08:00;;;;;;;4.18;2.72;;;33.70;42.30;;;;;;9163328;19;20368;-75
2022/08/14 16:11:10;;;;;;;5.30;3.10;;;33.70;42.40;;;;;;9159210;19;20006;-74
2022/08/14 16:14:15;;;;;;;8.35;2.63;;;33.70;42.40;;;;;;9169681;19;20022;-73
2022/08/14 16:17:28;;;;;;;5.13;2.92;;;33.70;42.40;;;;;;9166357;19;20018;-74
2022/08/14 16:20:39;;;;;;;5.53;2.42;;;33.70;42.40;;;;;;9167032;19;20014;-76
2022/08/14 16:23:47;;;;;;;3.37;3.00;;;33.70;42.50;;;;;;9166127;19;20115;-73
2022/08/14 16:27:03;;;;;;;2.97;2.60;;;33.70;42.50;;;;;;9170289;19;20132;-76
2022/08/14 16:30:13;;;;;;;3.53;2.88;;;33.60;42.50;;;;;;9168224;19;20018;-74
2022/08/14 16:33:32;;;;;;;4.13;2.90;;;33.70;42.60;;;;;;9168571;19;20019;-74
2022/08/14 16:37:00;;;;;;;4.00;2.47;;;33.60;42.50;;;;;;9167118;19;20055;-74
2022/08/14 16:40:07;;;;;;;2.78;2.42;;;33.60;42.50;;;;;;9164154;19;20038;-73
2022/08/14 16:43:16;;;;;;;3.45;2.60;;;33.60;42.50;;;;;;9160267;19;20114;-75
2022/08/14 16:46:22;;;;;;;3.67;2.78;;;33.60;42.40;;;;;;9163565;19;20701;-73
2022/08/14 16:49:30;;;;;;;2.53;2.28;;;33.60;42.40;;;;;;9164392;19;20018;-74